world map with FWCL marked

FWCL - Airport

This information may not be accurate or current and is not valid for navigation or flight planning. No warranty of fitness for any purpose is made or implied.

flag of Malawi

Donate via PayPal

Additional information is available on the NEW Great Circle Mapper

Location
City:  Blantyre, Malawi
Name:Chileka International Airport
ICAO / IATA:FWCL / BLZ

Details
Type:Airport (Aerodrome, Airfield)
Use:Public/Civil
Latitude:15°40'45"S (-15.679052)
Longitude:34°58'26"E (34.974014)
Datum:WGS 1984
Elevation:2555 ft (779 m)
Runways:2
Longest:7628 × 98 ft (2325 × 30 m)

Time
Timezone:UTC+2 (DST+4)
Local Time:

Weather
METAR:FWCL  191400Z 09005KT 9999 FEW020CB SCT025 BKN080 22/18 Q1018 NOSIG
TAF:FWCL  (expired)

Related Locations
Nearby:
Farthest:ITO: 11729 mi / 18877 km
Hilo [Hilo Intl], Hawaii, HI, US

Find:

   beyond  
but within

Other Information
Maps:
Sources:

  


 


Great Circle Mapper   Great Circle Mapper
Great Circle Mapper FAQ   Great Circle Mapper FAQ
  Karl's Home Page
KLSē   KLSē Home
   GC on Facebook
Airlines of the World   Airlines of the World
Donate via PayPal


Copyright © 2004-2018, Karl L. Swartz. All rights reserved.
All trademarks mentioned herein belong to their respective owners.

Please see credits for attribution and copyright information.

Karl Swartz <karl@kls2.com>
  Powered by FreeBSD
Valid HTML 4.01!
Labeled with ICRA
hCard Microformat
Geo Microformat